Time;durP1;ratioP1;P1;durP2;ratioP2;P2;SDS_P1;SDS_P2;PMS_P1;PMS_P2;Temp;Humidity;BMP_temperature;BMP_pressure;BME280_temperature;BME280_humidity;BME280_pressure;Samples;Min_cycle;Max_cycle;Signal;HPM_P1;HPM_P2
2023/05/27 00:01:42;;;;;;;14.85;3.35;;;;;;;10.33;51.58;101123.80;1743352;82;25637;-61
2023/05/27 00:04:09;;;;;;;11.48;2.87;;;;;;;10.28;51.80;101119.22;1743193;82;27406;-61
2023/05/27 00:06:36;;;;;;;12.75;3.00;;;;;;;10.22;51.98;101131.99;1742060;82;25681;-61
2023/05/27 00:09:04;;;;;;;16.73;3.37;;;;;;;10.20;52.51;101132.00;1743222;82;25627;-61
2023/05/27 00:11:30;;;;;;;7.90;2.60;;;;;;;10.17;52.52;101129.90;1770300;80;26005;-62
2023/05/27 00:13:57;;;;;;;15.10;3.72;;;;;;;10.13;52.71;101138.30;1770503;81;25526;-61
2023/05/27 00:16:24;;;;;;;10.28;2.98;;;;;;;10.09;52.76;101139.41;1770132;81;27322;-61
2023/05/27 00:18:52;;;;;;;21.25;3.75;;;;;;;10.04;52.79;101140.27;1768739;81;25449;-62
2023/05/27 00:21:18;;;;;;;8.85;3.08;;;;;;;10.02;53.24;101138.95;1770546;79;25593;-61
2023/05/27 00:23:51;;;;;;;10.93;2.87;;;;;;;9.99;53.14;101144.36;1770622;80;25380;-62
2023/05/27 00:26:17;;;;;;;9.63;2.85;;;;;;;9.95;53.50;101143.33;1770913;80;25551;-61
2023/05/27 00:28:43;;;;;;;12.00;3.50;;;;;;;9.89;53.88;101143.10;1770642;80;27438;-62
2023/05/27 00:31:10;;;;;;;9.30;3.17;;;;;;;9.83;53.99;101138.30;1770589;80;25631;-62
2023/05/27 00:33:36;;;;;;;12.00;3.10;;;;;;;9.79;54.06;101134.56;1770397;80;25462;-61
2023/05/27 00:36:03;;;;;;;8.98;3.08;;;;;;;9.73;53.95;101137.02;1770526;80;25616;-61
2023/05/27 00:38:31;;;;;;;9.80;3.22;;;;;;;9.69;54.51;101135.98;1770921;80;25426;-61
2023/05/27 00:41:01;;;;;;;13.72;3.17;;;;;;;9.63;54.17;101135.75;1769469;81;27503;-62
2023/05/27 00:43:30;;;;;;;17.80;4.30;;;;;;;9.57;54.44;101139.57;1770657;80;25599;-62
2023/05/27 00:45:56;;;;;;;17.77;4.08;;;;;;;9.52;55.02;101139.09;1770606;80;25528;-61
2023/05/27 00:48:23;;;;;;;12.05;3.30;;;;;;;9.47;55.27;101137.22;1770564;80;25623;-61
2023/05/27 00:50:50;;;;;;;11.08;3.47;;;;;;;9.43;55.06;101134.83;1770731;81;25385;-61
2023/05/27 00:53:17;;;;;;;12.00;2.90;;;;;;;9.38;55.39;101130.81;1767536;81;28070;-62
2023/05/27 00:55:45;;;;;;;11.08;4.03;;;;;;;9.35;55.66;101137.56;1769647;80;25438;-60
2023/05/27 00:58:12;;;;;;;16.17;3.50;;;;;;;9.29;55.61;101130.57;1769267;80;25731;-61
2023/05/27 01:00:38;;;;;;;13.72;3.72;;;;;;;9.24;55.94;101131.16;1768933;81;26011;-60
2023/05/27 01:03:07;;;;;;;14.35;4.50;;;;;;;9.19;56.30;101125.78;1768866;81;25679;-60
2023/05/27 01:05:34;;;;;;;11.68;3.27;;;;;;;9.13;56.46;101125.81;1769621;81;28112;-61
2023/05/27 01:08:22;;;;;;;13.95;3.50;;;;;;;9.03;56.75;101121.03;1769799;80;25608;-61
2023/05/27 01:10:55;;;;;;;11.93;4.40;;;;;;;8.99;56.66;101128.87;1770187;80;25981;-61
2023/05/27 01:13:46;;;;;;;14.35;3.60;;;;;;;8.95;57.04;101130.49;1770421;81;26756;-61
2023/05/27 01:16:16;;;;;;;9.50;3.75;;;;;;;8.90;57.14;101131.87;1768420;80;25794;-61
2023/05/27 01:18:46;;;;;;;12.60;3.50;;;;;;;8.84;57.25;101132.44;1768578;81;27358;-61
2023/05/27 01:21:19;;;;;;;14.38;4.10;;;;;;;8.81;57.73;101136.23;1770454;80;25585;-62
2023/05/27 01:23:51;;;;;;;7.75;3.30;;;;;;;8.76;57.80;101139.20;1771090;80;25480;-61
2023/05/27 01:26:17;;;;;;;9.65;3.10;;;;;;;8.74;58.00;101141.38;1770539;80;25443;-61
2023/05/27 01:28:45;;;;;;;13.98;3.75;;;;;;;8.72;58.30;101136.80;1770363;80;25532;-61
2023/05/27 01:31:32;;;;;;;11.57;3.35;;;;;;;8.68;58.17;101136.27;1770618;81;29520;-58
2023/05/27 01:34:08;;;;;;;10.50;3.72;;;;;;;8.66;58.64;101142.48;1770390;80;25615;-60
2023/05/27 01:36:47;;;;;;;15.45;4.30;;;;;;;8.58;58.70;101136.59;1771068;80;25724;-62
2023/05/27 01:39:17;;;;;;;13.22;3.55;;;;;;;8.54;58.74;101135.50;1770483;81;25420;-60
2023/05/27 01:41:45;;;;;;;12.82;3.52;;;;;;;8.50;59.13;101131.75;1770603;81;25563;-60
2023/05/27 01:44:17;;;;;;;7.00;2.90;;;;;;;8.46;59.40;101137.41;1770736;80;27874;-60
2023/05/27 01:46:45;;;;;;;11.20;3.87;;;;;;;8.40;59.47;101142.53;1770079;81;25626;-60
2023/05/27 01:49:11;;;;;;;13.72;3.12;;;;;;;8.35;59.59;101134.46;1768831;81;25600;-60
2023/05/27 01:51:37;;;;;;;10.65;3.98;;;;;;;8.27;59.41;101139.05;1770514;81;25960;-60
2023/05/27 01:54:04;;;;;;;11.35;3.40;;;;;;;8.22;60.12;101142.55;1770612;81;25402;-59
2023/05/27 01:56:31;;;;;;;13.98;3.65;;;;;;;8.14;60.26;101148.49;1768533;81;27596;-60
2023/05/27 01:58:58;;;;;;;9.90;3.40;;;;;;;8.12;60.49;101147.96;1769973;80;25501;-60
2023/05/27 02:01:24;;;;;;;13.05;3.42;;;;;;;8.10;60.57;101150.12;1745448;80;25419;-60
2023/05/27 02:03:51;;;;;;;10.35;3.27;;;;;;;8.07;60.29;101152.02;1769314;80;25455;-60
2023/05/27 02:06:18;;;;;;;10.28;2.92;;;;;;;8.06;60.20;101149.86;1770413;81;25374;-60
2023/05/27 02:08:44;;;;;;;11.78;3.45;;;;;;;8.04;60.69;101150.13;1770381;81;27327;-60
2023/05/27 02:11:11;;;;;;;10.13;3.10;;;;;;;8.00;60.28;101150.41;1769887;81;25363;-61
2023/05/27 02:13:37;;;;;;;9.78;3.42;;;;;;;7.98;60.45;101152.55;1754989;80;25419;-61
2023/05/27 02:16:06;;;;;;;10.05;3.02;;;;;;;7.97;60.63;101156.89;1754261;81;25562;-61
2023/05/27 02:18:32;;;;;;;9.03;3.50;;;;;;;7.95;60.93;101159.02;1755104;79;25386;-61
2023/05/27 02:21:05;;;;;;;82.22;76.33;;;;;;;7.90;60.70;101167.10;1753557;81;28149;-61
2023/05/27 02:23:27;;;;;;;9.45;4.58;;;;;;;7.82;60.66;101163.88;1753310;81;25438;-61
2023/05/27 02:25:54;;;;;;;9.83;2.98;;;;;;;7.77;60.56;101163.88;1754550;81;25608;-61
2023/05/27 02:28:20;;;;;;;17.90;15.55;;;;;;;7.72;60.87;101165.77;1754518;80;35054;-62
2023/05/27 02:30:46;;;;;;;8.58;4.25;;;;;;;7.66;60.75;101162.23;1754503;81;25599;-61
2023/05/27 02:33:12;;;;;;;45.90;42.40;;;;;;;7.62;60.82;101168.70;1753692;81;27911;-60
2023/05/27 02:35:38;;;;;;;8.90;3.62;;;;;;;7.59;61.32;101169.77;1754245;79;32685;-61
2023/05/27 02:38:04;;;;;;;9.13;3.15;;;;;;;7.55;61.73;101171.39;1754394;81;25537;-61
2023/05/27 02:40:31;;;;;;;10.20;2.72;;;;;;;7.51;61.88;101177.85;1754238;81;25601;-61
2023/05/27 02:42:57;;;;;;;10.13;3.15;;;;;;;7.46;61.59;101167.88;1755303;80;25605;-59
2023/05/27 02:45:25;;;;;;;8.45;3.17;;;;;;;7.43;61.74;101171.64;1754707;81;29530;-62
2023/05/27 02:47:51;;;;;;;10.03;3.27;;;;;;;7.40;62.28;101177.00;1754502;81;25406;-60
2023/05/27 02:50:19;;;;;;;9.60;3.35;;;;;;;7.36;62.09;101177.28;1754318;81;25560;-60
2023/05/27 02:52:46;;;;;;;10.00;3.15;;;;;;;7.33;62.35;101175.11;1753014;81;25668;-60
2023/05/27 02:55:12;;;;;;;11.83;3.40;;;;;;;7.32;62.26;101179.41;1754338;81;25637;-60
2023/05/27 02:57:39;;;;;;;11.70;3.45;;;;;;;7.31;62.63;101172.42;1754261;81;27415;-60
2023/05/27 03:00:09;;;;;;;7.65;2.92;;;;;;;7.29;62.64;101173.48;1754347;81;25694;-60
2023/05/27 03:02:35;;;;;;;8.13;3.27;;;;;;;7.28;63.25;101179.94;1753969;80;25499;-60
2023/05/27 03:05:06;;;;;;;9.48;3.80;;;;;;;7.28;63.59;101183.17;1754272;81;26094;-60
2023/05/27 03:07:31;;;;;;;;;;;;;;;7.28;63.85;101179.94;1757279;81;25462;-60
2023/05/27 03:09:58;;;;;;;11.45;3.00;;;;;;;7.28;64.06;101183.17;1754304;81;27364;-60
2023/05/27 03:12:25;;;;;;;11.10;3.27;;;;;;;7.28;63.99;101183.97;1759372;81;25586;-60
2023/05/27 03:14:52;;;;;;;14.38;3.60;;;;;;;7.29;64.13;101185.59;1770808;80;25575;-61
2023/05/27 03:17:20;;;;;;;11.90;3.12;;;;;;;7.34;64.52;101187.50;1770304;81;25540;-62
2023/05/27 03:19:48;;;;;;;12.95;3.40;;;;;;;7.38;64.69;101190.47;1770459;81;25545;-62
2023/05/27 03:22:16;;;;;;;13.45;3.80;;;;;;;7.40;65.11;101193.16;1769098;80;28079;-62
2023/05/27 03:24:44;;;;;;;9.35;3.40;;;;;;;7.44;65.06;101190.73;1770527;80;25443;-64
2023/05/27 03:27:11;;;;;;;9.33;3.55;;;;;;;7.50;65.59;101193.72;1767134;81;25447;-60
2023/05/27 03:29:37;;;;;;;12.28;4.05;;;;;;;7.53;65.99;101193.75;1770434;81;25950;-61
2023/05/27 03:32:05;;;;;;;12.68;3.55;;;;;;;7.58;66.10;101187.02;1768957;80;25391;-61
2023/05/27 03:34:31;;;;;;;7.25;3.08;;;;;;;7.64;66.44;101194.02;1770535;81;27388;-62
2023/05/27 03:36:58;;;;;;;11.28;3.17;;;;;;;7.67;66.41;101196.18;1770183;81;25513;-62
2023/05/27 03:39:24;;;;;;;11.03;3.35;;;;;;;7.73;66.44;101192.42;1770482;80;29719;-62
2023/05/27 03:41:51;;;;;;;6.40;3.00;;;;;;;7.80;66.74;101194.86;1770502;80;25627;-61
2023/05/27 03:44:17;;;;;;;9.48;4.08;;;;;;;7.83;66.92;101188.39;1767603;81;25541;-61
2023/05/27 03:46:44;;;;;;;7.17;3.35;;;;;;;7.88;66.87;101195.66;1770651;81;27254;-61
2023/05/27 03:49:11;;;;;;;11.08;3.60;;;;;;;7.94;67.03;101202.67;1769458;80;25385;-61
2023/05/27 03:51:37;;;;;;;15.98;3.98;;;;;;;7.99;67.09;101213.45;1769984;80;25239;-61
2023/05/27 03:54:04;;;;;;;10.18;3.50;;;;;;;8.05;67.23;101216.94;1770495;79;25715;-62
2023/05/27 03:56:31;;;;;;;9.30;3.45;;;;;;;8.10;67.24;101218.30;1770666;81;25383;-62
2023/05/27 03:58:57;;;;;;;12.58;3.30;;;;;;;8.16;67.23;101220.47;1769337;80;27317;-62
2023/05/27 04:01:23;;;;;;;14.73;4.20;;;;;;;8.24;67.45;101230.72;1770432;80;25563;-61
2023/05/27 04:03:50;;;;;;;13.08;3.52;;;;;;;8.31;67.57;101230.41;1770279;81;25508;-61
2023/05/27 04:06:17;;;;;;;12.55;3.58;;;;;;;8.37;67.55;101228.80;1770784;80;25553;-62
2023/05/27 04:08:43;;;;;;;11.00;3.40;;;;;;;8.47;67.69;101231.26;1770607;80;32967;-61
2023/05/27 04:11:12;;;;;;;7.20;3.00;;;;;;;8.53;67.58;101237.72;1771047;80;27255;-63
2023/05/27 04:13:40;;;;;;;10.72;3.33;;;;;;;8.59;67.51;101236.62;1748661;80;25415;-62
2023/05/27 04:16:07;;;;;;;10.78;3.08;;;;;;;8.68;67.60;101240.11;1767926;81;25398;-62
2023/05/27 04:18:35;;;;;;;10.35;4.87;;;;;;;8.74;67.62;101246.58;1767870;81;25442;-61
2023/05/27 04:21:04;;;;;;;7.05;3.15;;;;;;;8.81;67.64;101244.95;1768207;81;25390;-61
2023/05/27 04:23:31;;;;;;;9.78;2.95;;;;;;;8.87;67.58;101245.21;1768078;80;27481;-61
2023/05/27 04:25:57;;;;;;;10.15;3.22;;;;;;;8.94;67.61;101243.03;1767820;81;25388;-61
2023/05/27 04:28:23;;;;;;;13.75;3.10;;;;;;;9.02;67.62;101251.63;1768051;80;25481;-61
2023/05/27 04:30:50;;;;;;;8.18;3.20;;;;;;;9.10;67.64;101245.67;1767843;81;25545;-61
2023/05/27 04:33:17;;;;;;;10.05;3.98;;;;;;;9.16;67.53;101249.42;1767942;80;25569;-61
2023/05/27 04:35:44;;;;;;;9.35;3.42;;;;;;;9.22;67.45;101242.66;1767906;81;29493;-62
2023/05/27 04:38:16;;;;;;;8.48;3.25;;;;;;;9.28;67.47;101249.11;1767813;80;25574;-62
2023/05/27 04:40:45;;;;;;;14.33;5.53;;;;;;;9.35;67.58;101245.56;1768057;81;25559;-62
2023/05/27 04:43:14;;;;;;;8.25;3.80;;;;;;;9.44;67.51;101251.19;1768093;81;25406;-62
2023/05/27 04:45:43;;;;;;;12.90;4.83;;;;;;;9.51;67.37;101244.14;1768150;81;25381;-62
2023/05/27 04:48:10;;;;;;;13.58;4.30;;;;;;;9.61;67.52;101251.39;1768013;80;29456;-62
2023/05/27 04:50:37;;;;;;;9.38;3.72;;;;;;;9.70;67.43;101252.40;1767831;80;25394;-62
2023/05/27 04:53:03;;;;;;;6.37;2.72;;;;;;;9.78;67.22;101254.52;1768000;81;25604;-62
2023/05/27 04:55:30;;;;;;;8.13;2.80;;;;;;;9.88;67.16;101250.39;1767843;81;25481;-62
2023/05/27 04:57:59;;;;;;;19.12;12.40;;;;;;;9.97;67.12;101250.60;1767922;81;25361;-62
2023/05/27 05:03:10;;;;;;;9.05;3.25;;;;;;;10.13;66.91;101258.59;1767833;81;25620;-62
2023/05/27 05:05:37;;;;;;;7.08;3.10;;;;;;;10.24;66.61;101256.09;1767909;81;25383;-62
2023/05/27 05:08:04;;;;;;;9.48;3.77;;;;;;;10.35;66.58;101259.53;1767852;80;25607;-63
2023/05/27 05:10:31;;;;;;;8.65;4.15;;;;;;;10.42;66.35;101251.37;1768002;80;25626;-63
2023/05/27 05:12:57;;;;;;;8.83;2.65;;;;;;;10.53;66.18;101252.08;1768280;81;27322;-63
2023/05/27 05:15:24;;;;;;;11.00;2.60;;;;;;;10.64;66.08;101254.13;1770689;80;25630;-62
2023/05/27 05:17:50;;;;;;;9.10;2.40;;;;;;;10.73;65.42;101260.55;1769282;80;25369;-63
2023/05/27 05:20:17;;;;;;;9.73;2.80;;;;;;;10.80;65.38;101248.03;1769669;79;25642;-62
2023/05/27 05:22:43;;;;;;;8.05;2.75;;;;;;;10.93;65.55;101251.94;1770435;81;25364;-63
2023/05/27 05:25:10;;;;;;;7.78;2.65;;;;;;;11.08;65.22;101255.82;1770398;81;26868;-61
2023/05/27 05:27:36;;;;;;;11.53;3.95;;;;;;;11.24;65.16;101248.34;1769211;79;25764;-63
2023/05/27 05:30:05;;;;;;;8.85;3.15;;;;;;;11.38;64.72;101251.94;1770366;80;25405;-63
2023/05/27 05:32:33;;;;;;;6.37;2.87;;;;;;;11.55;64.44;101247.37;1769272;81;25623;-63
2023/05/27 05:35:00;;;;;;;6.10;2.22;;;;;;;11.75;64.24;101256.34;1767533;80;25647;-61
2023/05/27 05:37:26;;;;;;;7.10;2.67;;;;;;;11.91;63.92;101252.31;1770068;80;27269;-63
2023/05/27 05:39:57;;;;;;;5.62;2.10;;;;;;;12.11;63.62;101249.05;1770452;81;25704;-64
2023/05/27 05:42:24;;;;;;;6.62;2.22;;;;;;;12.29;63.28;101250.92;1770499;80;25426;-63
2023/05/27 05:44:53;;;;;;;5.62;2.50;;;;;;;12.48;62.64;101254.94;1770713;80;25493;-63
2023/05/27 05:47:20;;;;;;;9.35;3.12;;;;;;;12.64;62.13;101254.09;1770871;80;25563;-63
2023/05/27 05:49:46;;;;;;;9.43;2.65;;;;;;;12.81;61.80;101260.30;1769675;81;28183;-63
2023/05/27 05:52:13;;;;;;;8.08;2.35;;;;;;;12.95;61.18;101259.52;1770490;81;25368;-63
2023/05/27 05:54:39;;;;;;;11.97;2.42;;;;;;;13.06;60.73;101267.16;1769581;81;25734;-63
2023/05/27 05:57:05;;;;;;;8.48;2.20;;;;;;;13.16;60.46;101263.45;1770049;80;25577;-63
2023/05/27 05:59:32;;;;;;;6.37;2.22;;;;;;;13.32;59.70;101269.39;1771232;80;25445;-63
2023/05/27 06:01:58;;;;;;;7.65;1.85;;;;;;;13.37;58.91;101267.93;1770623;81;27310;-64
2023/05/27 06:04:24;;;;;;;7.00;2.17;;;;;;;13.48;59.00;101271.22;1770495;81;26035;-64
2023/05/27 06:06:50;;;;;;;5.15;1.72;;;;;;;13.60;58.33;101266.09;1770527;80;25613;-63
2023/05/27 06:09:16;;;;;;;7.60;2.47;;;;;;;13.69;57.70;101270.78;1770524;80;25612;-61
2023/05/27 06:11:43;;;;;;;2.90;1.70;;;;;;;13.80;56.99;101271.60;1770612;80;25432;-62
2023/05/27 06:14:09;;;;;;;6.85;2.37;;;;;;;13.87;56.60;101265.74;1768847;81;27372;-62
2023/05/27 06:16:39;;;;;;;6.58;2.12;;;;;;;13.97;56.53;101273.66;1769914;81;25615;-62
2023/05/27 06:19:07;;;;;;;2.90;1.82;;;;;;;14.11;56.32;101271.45;1770757;80;25606;-63
2023/05/27 06:21:33;;;;;;;4.65;2.05;;;;;;;14.27;55.86;101275.42;1770837;80;25398;-63
2023/05/27 06:24:00;;;;;;;8.28;2.30;;;;;;;14.42;55.28;101278.33;1770564;80;25605;-62
2023/05/27 06:26:27;;;;;;;9.65;2.02;;;;;;;14.61;55.17;101284.95;1770351;81;27358;-64
2023/05/27 06:28:54;;;;;;;3.75;1.80;;;;;;;14.83;54.73;101292.80;1769380;80;25536;-63
2023/05/27 06:31:20;;;;;;;8.93;1.98;;;;;;;14.99;54.22;101289.92;1770583;80;25584;-63
2023/05/27 06:33:46;;;;;;;8.15;1.92;;;;;;;15.18;53.49;101295.12;1770209;80;25666;-63
2023/05/27 06:36:12;;;;;;;4.97;1.62;;;;;;;15.37;53.15;101291.33;1769464;81;25417;-63
2023/05/27 06:38:39;;;;;;;5.10;1.60;;;;;;;15.56;52.38;101300.05;1766810;81;26816;-63
2023/05/27 06:41:05;;;;;;;9.73;3.75;;;;;;;15.72;51.58;101300.38;1769077;80;25849;-63
2023/05/27 06:43:31;;;;;;;6.35;3.00;;;;;;;15.86;51.49;101305.71;1770532;79;25546;-62
2023/05/27 06:45:58;;;;;;;5.17;2.08;;;;;;;16.04;50.76;101311.99;1770515;80;25977;-63
2023/05/27 06:48:24;;;;;;;5.28;1.60;;;;;;;16.25;50.73;101312.13;1767169;81;25582;-64
2023/05/27 06:50:51;;;;;;;6.30;1.62;;;;;;;16.46;49.77;101307.37;1765452;81;27305;-63
2023/05/27 06:53:17;;;;;;;4.50;1.45;;;;;;;16.61;49.15;101308.22;1767401;80;25438;-64
2023/05/27 06:55:44;;;;;;;5.80;1.82;;;;;;;16.79;48.60;101304.89;1770522;80;25559;-63
2023/05/27 06:58:10;;;;;;;6.35;1.70;;;;;;;16.99;48.01;101303.38;1770354;81;25477;-64
2023/05/27 07:00:36;;;;;;;2.87;1.65;;;;;;;17.19;47.59;101310.05;1770560;79;25387;-63
2023/05/27 07:03:03;;;;;;;3.35;1.40;;;;;;;17.44;47.14;101302.84;1745117;80;27254;-63
2023/05/27 07:05:29;;;;;;;9.93;1.40;;;;;;;17.66;46.74;101305.84;1767986;81;25682;-63
2023/05/27 07:07:56;;;;;;;4.50;1.50;;;;;;;17.91;46.42;101311.47;1771288;80;25410;-62
2023/05/27 07:10:23;;;;;;;5.37;1.70;;;;;;;18.16;45.66;101319.24;1768778;81;25776;-64
2023/05/27 07:12:49;;;;;;;4.60;1.50;;;;;;;18.38;44.64;101318.66;1770635;79;25427;-63
2023/05/27 07:15:16;;;;;;;5.30;2.40;;;;;;;18.59;44.30;101308.45;1770463;81;27322;-65
2023/05/27 07:17:43;;;;;;;5.85;1.90;;;;;;;18.84;43.74;101313.42;1770549;81;25578;-64
2023/05/27 07:20:12;;;;;;;4.62;1.37;;;;;;;19.07;43.02;101314.38;1770596;80;25588;-64
2023/05/27 07:22:39;;;;;;;3.27;1.50;;;;;;;19.29;41.99;101310.38;1770725;80;25914;-64
2023/05/27 07:25:08;;;;;;;4.65;1.52;;;;;;;19.51;41.75;101308.29;1770547;81;25648;-64
2023/05/27 07:27:36;;;;;;;3.08;1.45;;;;;;;19.75;41.67;101307.47;1768833;80;27321;-64
2023/05/27 07:30:04;;;;;;;2.67;1.42;;;;;;;20.01;40.86;101308.44;1770633;80;25613;-64
2023/05/27 07:32:31;;;;;;;7.20;1.30;;;;;;;20.22;40.35;101304.70;1769307;81;25436;-64
2023/05/27 07:34:57;;;;;;;4.45;1.65;;;;;;;20.44;39.56;101311.58;1770021;79;26270;-64
2023/05/27 07:37:25;;;;;;;5.37;1.27;;;;;;;20.58;38.94;101298.78;1770868;80;25628;-63
2023/05/27 07:39:52;;;;;;;3.00;1.47;;;;;;;20.70;38.37;101302.85;1769649;80;27457;-64
2023/05/27 07:42:18;;;;;;;5.42;1.82;;;;;;;20.85;37.91;101304.81;1768631;81;25450;-64
2023/05/27 07:44:44;;;;;;;3.92;1.57;;;;;;;21.11;37.59;101303.47;1769958;81;25590;-64
2023/05/27 07:47:12;;;;;;;3.87;1.17;;;;;;;21.39;37.49;101299.22;1770122;81;25349;-64
2023/05/27 07:49:40;;;;;;;5.87;2.02;;;;;;;21.68;36.97;101306.77;1770001;81;25598;-63
2023/05/27 07:52:06;;;;;;;2.10;1.35;;;;;;;21.87;36.19;101301.06;1770673;81;27334;-64
2023/05/27 07:54:33;;;;;;;2.45;1.37;;;;;;;22.09;35.94;101292.66;1768819;81;25534;-64
2023/05/27 07:56:59;;;;;;;4.08;1.32;;;;;;;22.41;35.95;101282.83;1767985;80;25563;-63
2023/05/27 07:59:25;;;;;;;4.78;1.55;;;;;;;22.75;35.42;101288.77;1770628;80;25547;-64
2023/05/27 08:01:52;;;;;;;4.03;1.37;;;;;;;22.93;34.49;101282.75;1769951;80;25418;-64
2023/05/27 08:04:18;;;;;;;3.87;1.20;;;;;;;23.17;34.48;101289.84;1768673;81;27374;-63
2023/05/27 08:06:44;;;;;;;5.37;1.40;;;;;;;23.41;33.65;101278.98;1770302;80;25533;-64
2023/05/27 08:09:10;;;;;;;5.80;1.70;;;;;;;23.55;33.43;101275.62;1770765;80;25547;-63
2023/05/27 08:11:36;;;;;;;4.35;1.70;;;;;;;23.73;33.14;101269.52;1770672;81;25689;-63
2023/05/27 08:14:03;;;;;;;3.37;2.45;;;;;;;23.91;32.33;101273.33;1764029;80;25461;-64
2023/05/27 08:16:29;;;;;;;5.55;2.10;;;;;;;24.02;31.96;101274.83;1749168;80;27412;-63
2023/05/27 08:18:55;;;;;;;2.45;1.30;;;;;;;24.10;31.26;101277.09;1749159;82;25468;-64
2023/05/27 08:21:21;;;;;;;3.85;1.52;;;;;;;24.16;31.10;101273.62;1749113;82;25656;-64
2023/05/27 08:23:49;;;;;;;2.50;1.27;;;;;;;24.35;30.89;101268.48;1749076;82;25682;-63
2023/05/27 08:26:16;;;;;;;2.92;1.40;;;;;;;24.54;30.77;101273.59;1749085;82;25395;-63
2023/05/27 08:28:46;;;;;;;3.50;1.00;;;;;;;24.82;30.18;101266.14;1749049;82;27311;-63
2023/05/27 08:31:12;;;;;;;4.00;1.00;;;;;;;25.00;29.79;101262.73;1748969;82;27113;-63
2023/05/27 08:33:38;;;;;;;5.65;2.70;;;;;;;25.16;29.59;101264.59;1749076;82;25376;-63
2023/05/27 08:36:06;;;;;;;4.05;1.10;;;;;;;25.43;29.30;101268.55;1749016;80;25652;-63
2023/05/27 08:38:32;;;;;;;2.05;1.20;;;;;;;25.72;28.94;101266.70;1749101;82;25458;-64
2023/05/27 08:40:59;;;;;;;6.65;1.47;;;;;;;25.93;28.14;101270.13;1749143;82;28020;-63
2023/05/27 08:43:26;;;;;;;5.97;1.20;;;;;;;26.08;27.81;101273.78;1749182;82;25600;-63
2023/05/27 08:45:54;;;;;;;1.87;1.37;;;;;;;26.13;27.49;101268.45;1749177;82;25420;-62
2023/05/27 08:48:20;;;;;;;3.05;1.42;;;;;;;26.25;27.26;101265.30;1749122;82;25577;-65
2023/05/27 08:50:47;;;;;;;2.70;1.32;;;;;;;26.45;27.00;101262.36;1749090;82;25527;-63
2023/05/27 08:53:16;;;;;;;3.30;1.27;;;;;;;26.63;26.38;101260.23;1749026;82;27911;-63
2023/05/27 08:55:43;;;;;;;5.85;1.20;;;;;;;26.75;26.02;101272.32;1738268;82;25425;-65
2023/05/27 08:58:11;;;;;;;4.83;1.35;;;;;;;26.95;25.66;101269.12;1749099;80;25565;-65
2023/05/27 09:00:37;;;;;;;2.00;1.00;;;;;;;27.12;25.36;101268.90;1749041;82;25623;-64
2023/05/27 09:03:03;;;;;;;3.52;1.30;;;;;;;27.14;24.67;101273.45;1749033;82;25554;-64
2023/05/27 09:05:31;;;;;;;3.50;1.57;;;;;;;27.20;24.76;101265.70;1749012;82;27519;-63
2023/05/27 09:07:57;;;;;;;3.25;1.30;;;;;;;27.36;24.50;101257.56;1748948;82;25757;-64
2023/05/27 09:10:23;;;;;;;4.22;1.12;;;;;;;27.47;24.31;101261.71;1749099;82;25592;-64
2023/05/27 09:12:51;;;;;;;2.60;1.10;;;;;;;27.50;23.66;101264.47;1738453;82;25610;-64
2023/05/27 09:15:17;;;;;;;1.17;1.00;;;;;;;27.56;23.31;101257.29;1763314;80;25444;-65
2023/05/27 09:17:46;;;;;;;3.27;1.17;;;;;;;27.64;22.82;101255.28;1770607;81;27339;-60
2023/05/27 09:20:12;;;;;;;2.63;1.20;;;;;;;27.63;22.65;101259.25;1771008;80;25554;-63
2023/05/27 09:22:41;;;;;;;1.30;1.20;;;;;;;27.58;22.45;101253.53;1770644;80;25532;-62
2023/05/27 09:25:09;;;;;;;2.95;1.35;;;;;;;27.47;22.18;101240.27;1768673;81;26302;-59
2023/05/27 09:27:35;;;;;;;7.72;1.32;;;;;;;27.42;22.34;101244.85;1770639;80;25565;-60
2023/05/27 09:30:09;;;;;;;7.33;1.42;;;;;;;27.39;22.33;101247.04;1771000;80;27331;-62
2023/05/27 09:32:36;;;;;;;1.65;0.90;;;;;;;27.42;21.91;101244.85;1769394;79;25669;-60
2023/05/27 09:35:07;;;;;;;3.02;0.80;;;;;;;27.43;21.97;101250.62;1769621;80;25571;-62
2023/05/27 09:37:34;;;;;;;7.65;1.57;;;;;;;27.63;22.03;101255.08;1770507;81;25623;-63
2023/05/27 09:40:15;;;;;;;1.55;0.93;;;;;;;28.02;22.04;101245.00;1770567;80;25470;-55
2023/05/27 09:42:50;;;;;;;1.67;1.12;;;;;;;28.20;21.55;101262.37;1769786;81;27415;-52
2023/05/27 09:45:20;;;;;;;3.02;1.17;;;;;;;28.44;21.74;101256.43;1770349;80;25643;-54
2023/05/27 09:47:54;;;;;;;2.45;1.25;;;;;;;28.68;21.31;101258.84;1771202;80;25636;-57
2023/05/27 09:50:22;;;;;;;4.22;3.85;;;;;;;28.66;20.74;101245.95;1768341;80;26499;-53
2023/05/27 09:52:49;;;;;;;3.45;1.47;;;;;;;28.60;20.20;101246.19;1770529;81;25557;-56
2023/05/27 09:55:17;;;;;;;2.27;1.22;;;;;;;28.59;20.09;101244.63;1770905;80;27365;-55
2023/05/27 09:57:45;;;;;;;2.05;1.15;;;;;;;28.60;20.12;101247.58;1770574;81;25677;-54
2023/05/27 10:00:17;;;;;;;3.25;1.20;;;;;;;28.78;20.37;101257.79;1770509;81;25426;-55
2023/05/27 10:02:47;;;;;;;1.92;1.20;;;;;;;28.99;20.24;101253.39;1769812;81;25743;-52
2023/05/27 10:05:16;;;;;;;3.90;1.20;;;;;;;29.18;19.91;101250.63;1769180;80;25390;-55
2023/05/27 10:07:46;;;;;;;4.47;1.37;;;;;;;29.36;19.90;101251.05;1769120;80;27378;-53
2023/05/27 10:10:17;;;;;;;1.32;1.20;;;;;;;29.72;20.04;101255.56;1770495;80;25563;-55
2023/05/27 10:12:47;;;;;;;2.25;1.50;;;;;;;29.82;18.87;101253.11;1770807;80;25600;-55
2023/05/27 10:15:31;;;;;;;2.87;0.90;;;;;;;29.63;19.36;101255.30;1770833;80;25830;-54
2023/05/27 10:18:03;;;;;;;3.40;1.42;;;;;;;29.70;18.80;101266.97;1769704;80;25387;-55
2023/05/27 10:20:39;;;;;;;2.25;1.20;;;;;;;29.54;18.61;101257.79;1770507;80;27385;-55
2023/05/27 10:23:22;;;;;;;2.08;1.20;;;;;;;29.44;18.75;101259.52;1770367;80;25424;-58
2023/05/27 10:25:53;;;;;;;5.40;4.00;;;;;;;29.32;18.86;101261.43;1770222;80;25563;-64
2023/05/27 10:28:35;;;;;;;2.92;1.98;;;;;;;29.25;18.40;101263.69;1765181;81;25722;-57
2023/05/27 10:31:18;;;;;;;3.05;1.67;;;;;;;29.01;18.31;101259.94;1770531;80;25524;-57
2023/05/27 10:33:51;;;;;;;3.60;1.22;;;;;;;28.75;18.60;101253.03;1770419;80;26651;-60
2023/05/27 10:36:31;;;;;;;3.37;1.42;;;;;;;28.53;18.84;101258.75;1770277;80;25549;-57
2023/05/27 10:39:08;;;;;;;3.25;1.17;;;;;;;28.39;18.90;101253.30;1770886;80;25405;-58
2023/05/27 10:41:54;;;;;;;1.25;1.15;;;;;;;28.37;19.13;101252.92;1769959;80;25636;-58
2023/05/27 10:44:37;;;;;;;4.17;1.60;;;;;;;28.35;19.09;101251.13;1770607;81;25435;-59
2023/05/27 10:47:16;;;;;;;3.60;1.00;;;;;;;28.43;19.23;101245.10;1770108;80;27518;-55
2023/05/27 10:49:47;;;;;;;3.65;1.37;;;;;;;28.75;19.25;101258.60;1770295;81;25609;-58
2023/05/27 10:52:17;;;;;;;3.40;1.30;;;;;;;28.90;18.79;101249.53;1770473;80;25370;-67
2023/05/27 10:54:47;;;;;;;3.40;1.37;;;;;;;29.05;19.00;101252.36;1770007;81;25688;-73
2023/05/27 10:57:14;;;;;;;1.95;0.90;;;;;;;29.11;19.54;101256.86;1770414;81;25540;-57
2023/05/27 10:59:59;;;;;;;5.80;1.20;;;;;;;29.04;19.88;101257.11;1770761;80;27506;-56
2023/05/27 11:02:22;;;;;;;2.12;1.20;;;;;;;29.06;19.28;101254.73;1769594;80;25390;-53
2023/05/27 11:04:52;;;;;;;3.45;1.90;;;;;;;29.11;20.02;101259.65;1769363;81;25559;-53
2023/05/27 11:07:22;;;;;;;2.08;1.25;;;;;;;28.98;19.91;101253.22;1770689;80;26383;-52
2023/05/27 11:09:53;;;;;;;2.65;1.10;;;;;;;28.93;20.11;101252.27;1770524;80;25639;-54
2023/05/27 11:12:23;;;;;;;13.55;9.15;;;;;;;28.92;20.22;101253.47;1768484;81;27945;-59
2023/05/27 11:14:56;;;;;;;5.47;2.02;;;;;;;28.80;20.10;101251.98;1770534;80;25645;-62
2023/05/27 11:17:24;;;;;;;17.05;15.20;;;;;;;28.41;20.24;101252.29;1770267;80;25380;-61
2023/05/27 11:19:54;;;;;;;4.95;1.87;;;;;;;27.90;20.40;101253.17;1763499;81;25618;-61
2023/05/27 11:22:21;;;;;;;2.05;1.50;;;;;;;27.31;20.99;101256.58;1770585;80;25564;-60
2023/05/27 11:24:56;;;;;;;5.83;2.27;;;;;;;26.92;21.06;101253.26;1770658;80;27395;-61
2023/05/27 11:27:23;;;;;;;7.62;5.53;;;;;;;26.73;20.81;101254.47;1770188;80;25762;-63
2023/05/27 11:29:52;;;;;;;3.87;1.62;;;;;;;26.51;21.28;101252.25;1770829;79;25405;-63
2023/05/27 11:32:20;;;;;;;1.40;1.05;;;;;;;26.21;21.61;101247.28;1771775;80;25700;-60
2023/05/27 11:34:48;;;;;;;2.90;1.00;;;;;;;26.04;21.12;101243.28;1770637;80;25378;-64